Tripolis, Greece
Current Conditions -  °F | °C
As of 1:20 PM on Monday 22 Dec 2014 (Local Time) from LGKL Reporting Station
Broken Clouds Broken Clouds  
Wind Chill: 57°   Ceiling: 8000
Heat Index: 57°   Visibility: 6mi
Dew Point: 39°   Wind: 5mph
Humidity: 51%   Direction: 350°N
Pressure: 30.33"   Gusts: NA
Location:  37.51°N, 22.37°E
Report Text: LGKL 221020Z 35004KT 9999 FEW025 BKN080 14/04 Q1027
Loading
Personal Weather Stations






























Interactive Weather Map New forecast layout! Learn more

10-Day Weather Forecast

Advertisements
Track Severe Weather on mobile